createdAt,value
2023-03-29T00:00:06.137Z,8.49
2023-03-29T00:03:10.956Z,8.43
2023-03-29T00:06:22.368Z,8.39
2023-03-29T00:09:27.923Z,8.40
2023-03-29T00:12:32.570Z,8.48
2023-03-29T00:15:36.809Z,8.53
2023-03-29T00:18:39.992Z,8.50
2023-03-29T00:21:43.058Z,8.49
2023-03-29T00:24:49.205Z,8.47
2023-03-29T00:27:52.288Z,8.49
2023-03-29T00:30:55.244Z,8.47
2023-03-29T00:33:58.181Z,8.42
2023-03-29T00:37:01.022Z,8.39
2023-03-29T00:40:09.873Z,8.38
2023-03-29T00:43:13.185Z,8.31
2023-03-29T00:46:16.072Z,8.30
2023-03-29T00:49:19.176Z,8.21
2023-03-29T00:52:24.229Z,8.12
2023-03-29T00:55:32.825Z,8.06
2023-03-29T00:58:39.356Z,8.12
2023-03-29T01:01:54.960Z,8.15
2023-03-29T01:05:05.576Z,8.22
2023-03-29T01:08:12.740Z,8.24
2023-03-29T01:11:22.712Z,8.23
2023-03-29T01:14:35.230Z,8.26
2023-03-29T01:17:39.259Z,8.23
2023-03-29T01:20:55.769Z,8.08
2023-03-29T01:24:34.657Z,8.13
2023-03-29T01:27:50.146Z,8.20
2023-03-29T01:30:59.018Z,8.22
2023-03-29T01:34:07.424Z,8.25
2023-03-29T01:37:17.288Z,8.25
2023-03-29T01:40:21.337Z,8.19
2023-03-29T01:43:31.798Z,8.17
2023-03-29T01:46:41.443Z,8.28
2023-03-29T01:49:50.448Z,8.27
2023-03-29T01:52:58.705Z,8.22
2023-03-29T01:56:07.606Z,8.16
2023-03-29T01:59:15.267Z,8.24
2023-03-29T02:02:21.592Z,8.26
2023-03-29T02:05:26.517Z,8.27
2023-03-29T02:08:30.984Z,8.18
2023-03-29T02:11:36.087Z,8.18
2023-03-29T02:14:40.654Z,8.22
2023-03-29T02:17:44.691Z,8.22
2023-03-29T02:20:51.898Z,8.14
2023-03-29T02:23:57.807Z,8.08
2023-03-29T02:27:01.897Z,8.13
2023-03-29T02:30:07.910Z,8.25
2023-03-29T02:33:15.739Z,8.20
2023-03-29T02:36:23.592Z,8.19
2023-03-29T02:39:28.916Z,8.22
2023-03-29T02:42:32.755Z,8.23
2023-03-29T02:45:38.214Z,8.19
2023-03-29T02:48:41.926Z,8.19
2023-03-29T02:51:47.410Z,8.14
2023-03-29T02:54:54.376Z,8.19
2023-03-29T02:57:57.340Z,8.11
2023-03-29T03:01:03.617Z,8.12
2023-03-29T03:04:06.842Z,8.02
2023-03-29T03:07:09.726Z,7.92
2023-03-29T03:10:12.635Z,7.78
2023-03-29T03:13:15.711Z,7.78
2023-03-29T03:16:20.231Z,7.74
2023-03-29T03:19:23.089Z,7.71
2023-03-29T03:22:26.378Z,7.62
2023-03-29T03:25:29.127Z,7.58
2023-03-29T03:28:32.373Z,7.62
2023-03-29T03:31:36.624Z,7.56
2023-03-29T03:34:39.720Z,7.63
2023-03-29T03:37:42.970Z,7.69
2023-03-29T03:40:45.797Z,7.67
2023-03-29T03:43:49.160Z,7.63
2023-03-29T03:46:53.204Z,7.62
2023-03-29T03:49:55.916Z,7.72
2023-03-29T03:52:58.570Z,7.78
2023-03-29T03:56:02.210Z,7.85
2023-03-29T03:59:05.209Z,7.87
2023-03-29T04:02:09.402Z,7.89
2023-03-29T04:05:12.268Z,7.87
2023-03-29T04:08:16.018Z,7.94
2023-03-29T04:11:18.997Z,7.92
2023-03-29T04:14:22.111Z,7.94
2023-03-29T04:17:26.363Z,7.94
2023-03-29T04:20:29.719Z,7.97
2023-03-29T04:23:32.521Z,8.00
2023-03-29T04:26:35.400Z,8.07
2023-03-29T04:29:38.131Z,8.04
2023-03-29T04:32:42.299Z,8.03
2023-03-29T04:35:45.170Z,8.13
2023-03-29T04:38:48.810Z,8.22
2023-03-29T04:41:51.602Z,8.27
2023-03-29T04:44:54.765Z,8.59
2023-03-29T04:47:59.724Z,8.74
2023-03-29T04:51:03.017Z,8.69
2023-03-29T04:54:06.579Z,8.70
2023-03-29T04:57:09.695Z,8.71
2023-03-29T05:00:16.916Z,8.75
2023-03-29T05:03:21.884Z,8.77
2023-03-29T05:06:24.639Z,8.73
2023-03-29T05:09:27.556Z,8.77
2023-03-29T05:12:30.525Z,8.84
2023-03-29T05:15:33.227Z,8.84
2023-03-29T05:18:37.737Z,8.85
2023-03-29T05:21:41.366Z,8.93
2023-03-29T05:24:45.007Z,8.95
2023-03-29T05:27:48.129Z,9.00
2023-03-29T05:31:01.451Z,9.08
2023-03-29T05:34:06.998Z,9.11
2023-03-29T05:37:10.220Z,9.12
2023-03-29T05:40:13.584Z,9.15
2023-03-29T05:43:16.704Z,9.19
2023-03-29T05:46:19.815Z,9.28
2023-03-29T05:49:24.069Z,9.35
2023-03-29T05:52:27.459Z,9.38
2023-03-29T05:55:30.454Z,9.44
2023-03-29T05:58:33.137Z,9.56
2023-03-29T06:01:36.810Z,9.62
2023-03-29T06:04:41.228Z,9.66
2023-03-29T06:07:44.096Z,9.62
2023-03-29T06:10:47.277Z,9.62
2023-03-29T06:13:50.231Z,9.62
2023-03-29T06:16:53.563Z,9.60
2023-03-29T06:19:58.601Z,9.56
2023-03-29T06:23:01.643Z,9.58
2023-03-29T06:26:05.777Z,9.62
2023-03-29T06:29:09.209Z,9.62
2023-03-29T06:32:12.640Z,9.65
2023-03-29T06:35:16.871Z,9.70
2023-03-29T06:38:20.772Z,9.75
2023-03-29T06:41:23.795Z,9.79
2023-03-29T06:44:28.369Z,9.81
2023-03-29T06:47:31.701Z,9.85
2023-03-29T06:50:36.696Z,10.00
2023-03-29T06:53:39.576Z,10.17
2023-03-29T06:56:42.445Z,10.14
2023-03-29T06:59:45.526Z,10.16
2023-03-29T07:02:49.155Z,10.13
2023-03-29T07:06:01.205Z,10.10
2023-03-29T07:09:06.616Z,10.08
2023-03-29T07:12:10.494Z,10.07
2023-03-29T07:15:13.541Z,10.24
2023-03-29T07:18:17.210Z,10.31
2023-03-29T07:21:21.688Z,10.29
2023-03-29T07:24:24.672Z,10.31
2023-03-29T07:27:27.600Z,10.33
2023-03-29T07:30:33.503Z,10.31
2023-03-29T07:33:37.207Z,10.35
2023-03-29T07:36:43.712Z,10.42
2023-03-29T07:39:46.961Z,10.48
2023-03-29T07:42:51.953Z,10.48
2023-03-29T07:45:55.875Z,10.52
2023-03-29T07:48:58.809Z,10.57
2023-03-29T07:52:03.750Z,10.64
2023-03-29T07:55:08.426Z,10.69
2023-03-29T07:58:11.441Z,10.77
2023-03-29T08:01:18.802Z,10.78
2023-03-29T08:04:22.583Z,10.90
2023-03-29T08:07:27.439Z,10.94
2023-03-29T08:10:30.329Z,10.98
2023-03-29T08:13:33.340Z,11.04
2023-03-29T08:16:36.265Z,11.13
2023-03-29T08:19:39.216Z,11.21
2023-03-29T08:22:44.443Z,11.29
2023-03-29T08:25:47.425Z,11.32
2023-03-29T08:28:50.199Z,11.42
2023-03-29T08:31:53.194Z,11.46
2023-03-29T08:34:56.083Z,11.47
2023-03-29T08:38:00.574Z,11.51
2023-03-29T08:41:20.661Z,11.54
2023-03-29T08:44:40.371Z,11.59
2023-03-29T08:47:51.696Z,11.63
2023-03-29T08:50:58.891Z,11.61
2023-03-29T08:54:07.236Z,11.66
2023-03-29T08:57:17.458Z,11.72
2023-03-29T09:00:25.717Z,11.79
2023-03-29T09:03:32.371Z,11.85
2023-03-29T09:06:35.987Z,11.96
2023-03-29T09:09:41.752Z,12.01
2023-03-29T09:12:56.284Z,12.01
2023-03-29T09:16:08.430Z,12.12
2023-03-29T09:19:20.878Z,12.23
2023-03-29T09:22:31.412Z,12.33
2023-03-29T09:25:53.350Z,12.37
2023-03-29T09:29:09.460Z,12.47
2023-03-29T09:32:19.972Z,12.63
2023-03-29T09:35:24.746Z,12.66
2023-03-29T09:38:29.938Z,12.72
2023-03-29T09:41:38.332Z,12.93
2023-03-29T09:44:44.928Z,13.06
2023-03-29T09:47:52.064Z,13.09
2023-03-29T09:50:55.402Z,13.21
2023-03-29T09:54:00.216Z,13.31
2023-03-29T09:57:04.581Z,13.52
2023-03-29T10:00:10.794Z,13.63
2023-03-29T10:03:30.478Z,13.80
2023-03-29T10:06:43.186Z,13.94
2023-03-29T10:09:55.184Z,14.15
2023-03-29T10:13:02.674Z,14.43
2023-03-29T10:16:07.406Z,14.69
2023-03-29T10:19:24.918Z,14.95
2023-03-29T10:22:38.877Z,14.76
2023-03-29T10:25:45.794Z,14.54
2023-03-29T10:28:57.419Z,14.53
2023-03-29T10:32:00.466Z,14.51
2023-03-29T10:35:10.747Z,14.50
2023-03-29T10:38:17.404Z,14.60
2023-03-29T10:41:23.050Z,14.69
2023-03-29T10:44:32.885Z,14.76
2023-03-29T10:47:36.442Z,15.02
2023-03-29T10:50:39.586Z,15.32
2023-03-29T10:53:42.858Z,15.58
2023-03-29T10:56:52.329Z,15.85
2023-03-29T11:00:02.408Z,16.11
2023-03-29T11:03:30.666Z,16.53
2023-03-29T11:06:38.819Z,16.80
2023-03-29T11:09:51.327Z,17.19
2023-03-29T11:12:58.881Z,17.45
2023-03-29T11:16:15.102Z,17.53
2023-03-29T11:19:43.824Z,17.84
2023-03-29T11:22:53.303Z,18.19
2023-03-29T11:26:05.342Z,18.56
2023-03-29T11:29:16.695Z,18.61
2023-03-29T11:32:30.271Z,18.65
2023-03-29T11:35:51.946Z,18.46
2023-03-29T11:39:04.907Z,18.13
2023-03-29T11:42:12.685Z,18.10
2023-03-29T11:45:22.083Z,17.89
2023-03-29T11:48:32.675Z,17.67
2023-03-29T11:51:39.316Z,17.50
2023-03-29T11:54:45.535Z,17.38
2023-03-29T11:57:53.923Z,17.29
2023-03-29T12:01:02.788Z,17.35
2023-03-29T12:04:14.320Z,17.54
2023-03-29T12:07:24.251Z,17.91
2023-03-29T12:10:36.155Z,18.27
2023-03-29T12:13:43.947Z,18.29
2023-03-29T12:16:51.890Z,18.22
2023-03-29T12:20:04.354Z,18.04
2023-03-29T12:23:09.121Z,17.96
2023-03-29T12:26:29.303Z,17.99
2023-03-29T12:29:48.526Z,18.01
2023-03-29T12:33:15.762Z,18.15
2023-03-29T12:36:49.776Z,18.48
2023-03-29T12:39:53.437Z,18.47
2023-03-29T12:43:02.230Z,18.34
2023-03-29T12:46:09.478Z,18.16
2023-03-29T12:49:15.944Z,17.96
2023-03-29T12:52:28.003Z,17.80
2023-03-29T12:55:34.712Z,17.66
2023-03-29T12:58:53.622Z,17.61
2023-03-29T13:02:01.800Z,17.47
2023-03-29T13:05:07.573Z,17.29
2023-03-29T13:08:35.582Z,17.22
2023-03-29T13:11:41.328Z,17.13
2023-03-29T13:14:47.119Z,17.04
2023-03-29T13:17:59.608Z,16.99
2023-03-29T13:21:09.155Z,16.91
2023-03-29T13:24:34.709Z,16.89
2023-03-29T13:27:46.541Z,16.93
2023-03-29T13:30:59.434Z,16.78
2023-03-29T13:34:13.580Z,16.82
2023-03-29T13:37:30.993Z,16.98
2023-03-29T13:40:48.084Z,16.94
2023-03-29T13:43:54.699Z,16.78
2023-03-29T13:47:06.610Z,16.62
2023-03-29T13:50:17.818Z,16.50
2023-03-29T13:53:28.727Z,16.41
2023-03-29T13:56:39.889Z,16.49
2023-03-29T13:59:50.639Z,16.36
2023-03-29T14:03:01.813Z,16.09
2023-03-29T14:06:28.845Z,15.70
2023-03-29T14:09:34.722Z,15.41
2023-03-29T14:12:42.211Z,15.24
2023-03-29T14:15:52.599Z,15.05
2023-03-29T14:19:00.148Z,14.93
2023-03-29T14:22:04.396Z,14.86
2023-03-29T14:25:13.878Z,14.77
2023-03-29T14:28:27.056Z,14.80
2023-03-29T14:31:33.105Z,14.80
2023-03-29T14:34:36.190Z,14.69
2023-03-29T14:37:39.155Z,14.80
2023-03-29T14:40:45.192Z,14.87
2023-03-29T14:43:49.664Z,14.95
2023-03-29T14:46:52.784Z,14.98
2023-03-29T14:50:00.535Z,14.91
2023-03-29T14:53:04.098Z,14.92
2023-03-29T14:56:08.241Z,14.96
2023-03-29T14:59:27.126Z,14.97
2023-03-29T15:02:32.042Z,15.03
2023-03-29T15:05:38.825Z,15.10
2023-03-29T15:08:51.105Z,15.15
2023-03-29T15:12:02.429Z,15.03
2023-03-29T15:15:12.041Z,15.04
2023-03-29T15:18:17.951Z,15.09
2023-03-29T15:21:23.263Z,15.14
2023-03-29T15:24:31.090Z,15.15
2023-03-29T15:27:42.535Z,15.16
2023-03-29T15:30:54.217Z,15.20
2023-03-29T15:34:08.940Z,15.42
2023-03-29T15:37:13.293Z,15.54
2023-03-29T15:40:17.210Z,15.60
2023-03-29T15:43:21.647Z,15.51
2023-03-29T15:46:26.352Z,15.41
2023-03-29T15:49:29.374Z,15.37
2023-03-29T15:52:32.496Z,15.37
2023-03-29T15:55:35.401Z,15.27
2023-03-29T15:58:38.796Z,15.22
2023-03-29T16:01:43.207Z,15.15
2023-03-29T16:04:46.174Z,15.07
2023-03-29T16:07:49.412Z,15.04
2023-03-29T16:10:52.128Z,15.02
2023-03-29T16:13:55.475Z,14.98
2023-03-29T16:17:01.463Z,14.93
2023-03-29T16:20:05.955Z,14.83
2023-03-29T16:23:09.858Z,14.79
2023-03-29T16:29:17.477Z,14.76
2023-03-29T16:32:21.955Z,14.73
2023-03-29T16:35:28.315Z,14.76
2023-03-29T16:38:31.037Z,14.74
2023-03-29T16:41:34.459Z,14.68
2023-03-29T16:44:37.357Z,14.65
2023-03-29T16:47:44.784Z,14.57
2023-03-29T16:50:49.492Z,14.55
2023-03-29T16:53:52.608Z,14.55
2023-03-29T16:56:55.496Z,14.53
2023-03-29T16:59:58.385Z,14.56
2023-03-29T17:03:02.712Z,14.55
2023-03-29T17:06:06.885Z,14.50
2023-03-29T17:09:09.802Z,14.46
2023-03-29T17:12:12.826Z,14.48
2023-03-29T17:15:17.384Z,14.50
2023-03-29T17:18:22.416Z,14.48
2023-03-29T17:21:25.472Z,14.38
2023-03-29T17:24:28.184Z,14.37
2023-03-29T17:27:31.104Z,14.40
2023-03-29T17:30:34.970Z,14.39
2023-03-29T17:33:39.489Z,14.40
2023-03-29T17:36:42.277Z,14.39
2023-03-29T17:39:46.147Z,14.34
2023-03-29T17:42:52.345Z,14.28
2023-03-29T17:45:55.857Z,14.26
2023-03-29T17:49:00.471Z,14.27
2023-03-29T17:52:03.657Z,14.26
2023-03-29T17:55:11.102Z,14.23
2023-03-29T17:58:14.136Z,14.23
2023-03-29T18:01:19.716Z,14.21
2023-03-29T18:04:24.104Z,14.15
2023-03-29T18:07:26.882Z,14.08
2023-03-29T18:10:30.957Z,14.15
2023-03-29T18:13:33.741Z,14.11
2023-03-29T18:16:36.936Z,14.10
2023-03-29T18:19:41.296Z,14.10
2023-03-29T18:22:45.808Z,14.07
2023-03-29T18:25:48.803Z,14.03
2023-03-29T18:28:51.762Z,13.96
2023-03-29T18:31:54.591Z,13.89
2023-03-29T18:34:58.863Z,13.80
2023-03-29T18:38:03.091Z,13.72
2023-03-29T18:41:06.769Z,13.67
2023-03-29T18:44:10.555Z,13.64
2023-03-29T18:47:13.181Z,13.61
2023-03-29T18:50:17.361Z,13.58
2023-03-29T18:53:20.170Z,13.53
2023-03-29T18:56:22.916Z,13.55
2023-03-29T18:59:26.011Z,13.52
2023-03-29T19:02:29.086Z,13.49
2023-03-29T19:05:33.054Z,13.46
2023-03-29T19:08:37.238Z,13.47
2023-03-29T19:11:40.001Z,13.48
2023-03-29T19:14:42.599Z,13.47
2023-03-29T19:17:45.243Z,13.46
2023-03-29T19:20:50.873Z,13.48
2023-03-29T19:23:53.486Z,13.51
2023-03-29T19:26:56.443Z,13.48
2023-03-29T19:29:59.281Z,13.48
2023-03-29T19:33:02.020Z,13.49
2023-03-29T19:36:07.009Z,13.52
2023-03-29T19:39:09.962Z,13.51
2023-03-29T19:42:12.788Z,13.47
2023-03-29T19:45:15.483Z,13.49
2023-03-29T19:48:23.482Z,13.48
2023-03-29T19:51:28.823Z,13.46
2023-03-29T19:54:32.078Z,13.44
2023-03-29T19:57:34.917Z,13.40
2023-03-29T20:00:38.755Z,13.38
2023-03-29T20:03:43.535Z,13.32
2023-03-29T20:06:48.233Z,13.25
2023-03-29T20:09:50.900Z,13.21
2023-03-29T20:12:56.705Z,13.17
2023-03-29T20:15:59.417Z,13.14
2023-03-29T20:19:02.579Z,13.14
2023-03-29T20:22:07.926Z,13.14
2023-03-29T20:25:11.311Z,13.15
2023-03-29T20:28:14.888Z,13.15
2023-03-29T20:31:17.628Z,13.16
2023-03-29T20:34:20.378Z,13.17
2023-03-29T20:37:25.893Z,13.15
2023-03-29T20:40:29.974Z,13.13
2023-03-29T20:43:37.161Z,13.13
2023-03-29T20:46:46.153Z,13.12
2023-03-29T20:49:54.250Z,13.10
2023-03-29T20:53:03.594Z,13.06
2023-03-29T20:56:06.980Z,13.08
2023-03-29T20:59:12.065Z,13.06
2023-03-29T21:02:18.856Z,13.01
2023-03-29T21:05:21.806Z,12.96
2023-03-29T21:08:29.651Z,12.90
2023-03-29T21:11:33.351Z,12.88
2023-03-29T21:14:36.101Z,12.85
2023-03-29T21:17:38.824Z,12.83
2023-03-29T21:20:41.908Z,12.83
2023-03-29T21:23:45.923Z,12.82
2023-03-29T21:26:48.627Z,12.83
2023-03-29T21:29:51.259Z,12.83
2023-03-29T21:32:53.896Z,12.82
2023-03-29T21:35:56.604Z,12.83
2023-03-29T21:39:00.680Z,12.91
2023-03-29T21:42:03.698Z,13.03
2023-03-29T21:45:07.281Z,13.08
2023-03-29T21:48:09.936Z,13.23
2023-03-29T21:51:12.552Z,13.58
2023-03-29T21:54:16.901Z,13.76
2023-03-29T21:57:19.608Z,13.89
2023-03-29T22:00:22.428Z,14.01
2023-03-29T22:03:25.101Z,14.38
2023-03-29T22:06:27.703Z,14.45
2023-03-29T22:09:33.364Z,14.79
2023-03-29T22:12:37.266Z,14.88
2023-03-29T22:15:39.881Z,14.92
2023-03-29T22:18:46.782Z,15.00
2023-03-29T22:21:49.601Z,15.11
2023-03-29T22:24:54.689Z,15.18
2023-03-29T22:27:57.416Z,15.32
2023-03-29T22:31:03.373Z,15.23
2023-03-29T22:34:06.158Z,15.31
2023-03-29T22:37:08.928Z,15.52
2023-03-29T22:40:14.094Z,15.54
2023-03-29T22:43:16.753Z,15.68
2023-03-29T22:46:20.726Z,15.63
2023-03-29T22:49:23.390Z,15.67
2023-03-29T22:52:26.142Z,15.75
2023-03-29T22:55:30.144Z,15.72
2023-03-29T22:58:32.751Z,15.73
2023-03-29T23:01:35.437Z,15.75
2023-03-29T23:04:38.740Z,15.67
2023-03-29T23:07:41.386Z,15.70
2023-03-29T23:10:47.035Z,15.70
2023-03-29T23:13:52.478Z,15.75
2023-03-29T23:16:55.081Z,15.71
2023-03-29T23:19:57.884Z,15.67
2023-03-29T23:23:01.317Z,15.73
2023-03-29T23:26:06.570Z,15.75
2023-03-29T23:29:09.194Z,15.79
2023-03-29T23:32:12.156Z,15.77
2023-03-29T23:35:15.142Z,15.76
2023-03-29T23:38:17.935Z,15.73
2023-03-29T23:41:22.962Z,15.74
2023-03-29T23:44:25.595Z,15.80
2023-03-29T23:47:28.696Z,15.80
2023-03-29T23:50:31.351Z,15.79
2023-03-29T23:53:34.040Z,15.75
2023-03-29T23:56:38.020Z,15.71
2023-03-29T23:59:40.648Z,15.76
